createdAt,value
2022-11-12T00:00:20.692Z,13.50
2022-11-12T00:02:47.422Z,13.50
2022-11-12T00:05:14.247Z,13.40
2022-11-12T00:07:41.012Z,13.40
2022-11-12T00:10:07.958Z,13.40
2022-11-12T00:12:34.681Z,13.40
2022-11-12T00:15:01.467Z,13.40
2022-11-12T00:17:28.355Z,13.40
2022-11-12T00:19:55.294Z,13.40
2022-11-12T00:22:22.372Z,13.40
2022-11-12T00:24:49.146Z,13.40
2022-11-12T00:27:15.934Z,13.40
2022-11-12T00:29:45.929Z,13.40
2022-11-12T00:32:13.129Z,13.40
2022-11-12T00:34:39.865Z,13.40
2022-11-12T00:37:06.743Z,13.30
2022-11-12T00:39:33.488Z,13.30
2022-11-12T00:42:00.230Z,13.30
2022-11-12T00:44:27.839Z,13.30
2022-11-12T00:46:54.592Z,13.20
2022-11-12T00:49:21.552Z,13.20
2022-11-12T00:51:48.876Z,13.10
2022-11-12T00:54:15.691Z,13.10
2022-11-12T00:56:42.541Z,13.10
2022-11-12T00:59:09.284Z,13.00
2022-11-12T01:01:36.104Z,13.00
2022-11-12T01:04:02.905Z,12.90
2022-11-12T01:06:29.736Z,12.90
2022-11-12T01:08:56.551Z,12.80
2022-11-12T01:11:24.717Z,12.80
2022-11-12T01:13:56.093Z,12.70
2022-11-12T01:16:24.247Z,12.60
2022-11-12T01:18:55.224Z,12.60
2022-11-12T01:21:22.404Z,12.50
2022-11-12T01:23:49.184Z,12.50
2022-11-12T01:26:17.541Z,12.50
2022-11-12T01:28:44.727Z,12.40
2022-11-12T01:31:19.461Z,12.40
2022-11-12T01:33:47.122Z,12.40
2022-11-12T01:36:14.645Z,12.30
2022-11-12T01:38:42.348Z,12.20
2022-11-12T01:41:10.560Z,12.20
2022-11-12T01:43:37.518Z,12.20
2022-11-12T01:46:06.755Z,12.10
2022-11-12T01:48:35.764Z,12.10
2022-11-12T01:51:03.790Z,12.10
2022-11-12T01:53:32.216Z,12.00
2022-11-12T01:55:59.927Z,12.00
2022-11-12T01:58:29.828Z,11.90
2022-11-12T02:00:57.050Z,12.00
2022-11-12T02:03:24.990Z,12.10
2022-11-12T02:05:55.234Z,12.10
2022-11-12T02:08:22.948Z,12.20
2022-11-12T02:10:50.548Z,12.20
2022-11-12T02:13:36.093Z,12.30
2022-11-12T02:16:07.547Z,12.30
2022-11-12T02:18:34.312Z,12.30
2022-11-12T02:21:04.557Z,12.30
2022-11-12T02:23:32.454Z,12.40
2022-11-12T02:25:59.864Z,12.40
2022-11-12T02:28:27.284Z,12.40
2022-11-12T02:30:54.208Z,12.40
2022-11-12T02:33:20.997Z,12.40
2022-11-12T02:35:47.791Z,12.50
2022-11-12T02:38:14.538Z,12.50
2022-11-12T02:40:43.383Z,12.50
2022-11-12T02:43:10.090Z,12.50
2022-11-12T02:45:36.858Z,12.50
2022-11-12T02:48:03.793Z,12.50
2022-11-12T02:50:30.609Z,12.50
2022-11-12T02:52:57.313Z,12.50
2022-11-12T02:55:24.301Z,12.50
2022-11-12T02:57:51.074Z,12.50
2022-11-12T03:00:18.650Z,12.50
2022-11-12T03:02:59.024Z,12.50
2022-11-12T03:05:29.792Z,12.40
2022-11-12T03:07:57.885Z,12.50
2022-11-12T03:10:25.305Z,12.50
2022-11-12T03:12:52.552Z,12.50
2022-11-12T03:15:19.481Z,12.40
2022-11-12T03:17:46.400Z,12.50
2022-11-12T03:20:13.403Z,12.50
2022-11-12T03:22:40.575Z,12.50
2022-11-12T03:25:08.339Z,12.40
2022-11-12T03:27:35.416Z,12.40
2022-11-12T03:30:02.165Z,12.40
2022-11-12T03:32:28.927Z,12.40
2022-11-12T03:34:55.913Z,12.30
2022-11-12T03:37:22.692Z,12.40
2022-11-12T03:39:49.431Z,12.40
2022-11-12T03:42:16.373Z,12.40
2022-11-12T03:44:43.169Z,12.50
2022-11-12T03:47:09.908Z,12.40
2022-11-12T03:49:36.921Z,12.40
2022-11-12T03:52:03.653Z,12.50
2022-11-12T03:54:30.434Z,12.40
2022-11-12T03:56:57.137Z,12.40
2022-11-12T03:59:23.859Z,12.50
2022-11-12T04:01:50.673Z,12.50
2022-11-12T04:04:17.472Z,12.50
2022-11-12T04:07:03.266Z,12.50
2022-11-12T04:09:30.038Z,12.60
2022-11-12T04:12:16.722Z,12.60
2022-11-12T04:14:43.549Z,12.50
2022-11-12T04:17:28.898Z,12.60
2022-11-12T04:20:14.445Z,12.60
2022-11-12T04:22:41.167Z,12.60
2022-11-12T04:25:26.588Z,12.60
2022-11-12T04:27:53.320Z,12.60
2022-11-12T04:30:20.057Z,12.60
2022-11-12T04:32:48.643Z,12.60
2022-11-12T04:35:15.659Z,12.60
2022-11-12T04:37:45.550Z,12.60
2022-11-12T04:40:30.899Z,12.60
2022-11-12T04:43:16.004Z,12.50
2022-11-12T04:45:43.987Z,12.50
2022-11-12T04:48:10.697Z,12.50
2022-11-12T04:50:38.057Z,12.40
2022-11-12T04:53:04.996Z,12.40
2022-11-12T04:55:32.123Z,12.40
2022-11-12T04:58:00.820Z,12.50
2022-11-12T05:00:28.173Z,12.50
2022-11-12T05:02:54.989Z,12.50
2022-11-12T05:05:21.835Z,12.50
2022-11-12T05:07:48.630Z,12.50
2022-11-12T05:10:15.645Z,12.50
2022-11-12T05:12:42.936Z,12.40
2022-11-12T05:15:10.180Z,12.40
2022-11-12T05:17:36.915Z,12.30
2022-11-12T05:20:04.003Z,12.30
2022-11-12T05:22:43.256Z,12.30
2022-11-12T05:25:14.777Z,12.20
2022-11-12T05:27:41.551Z,12.20
2022-11-12T05:30:08.631Z,12.20
2022-11-12T05:32:35.490Z,12.20
2022-11-12T05:35:02.225Z,12.20
2022-11-12T05:37:28.995Z,12.20
2022-11-12T05:39:55.789Z,12.30
2022-11-12T05:42:22.716Z,12.30
2022-11-12T05:44:49.461Z,12.30
2022-11-12T05:47:16.800Z,12.30
2022-11-12T05:49:43.628Z,12.30
2022-11-12T05:52:10.391Z,12.30
2022-11-12T05:54:37.314Z,12.30
2022-11-12T05:57:04.297Z,12.40
2022-11-12T05:59:30.998Z,12.40
2022-11-12T06:01:57.864Z,12.40
2022-11-12T06:04:24.622Z,12.50
2022-11-12T06:06:51.413Z,12.60
2022-11-12T06:09:18.280Z,12.60
2022-11-12T06:11:45.016Z,12.60
2022-11-12T06:14:11.805Z,12.60
2022-11-12T06:16:38.593Z,12.70
2022-11-12T06:19:05.524Z,12.70
2022-11-12T06:21:32.308Z,12.70
2022-11-12T06:24:00.117Z,12.70
2022-11-12T06:26:27.969Z,12.70
2022-11-12T06:28:55.045Z,12.60
2022-11-12T06:31:22.147Z,12.70
2022-11-12T06:33:48.998Z,12.70
2022-11-12T06:36:16.987Z,12.80
2022-11-12T06:38:43.940Z,12.80
2022-11-12T06:41:11.575Z,12.80
2022-11-12T06:43:38.598Z,12.80
2022-11-12T06:46:06.991Z,12.90
2022-11-12T06:48:33.749Z,12.90
2022-11-12T06:51:05.997Z,12.90
2022-11-12T06:53:32.774Z,12.90
2022-11-12T06:56:04.251Z,13.00
2022-11-12T06:58:31.112Z,13.00
2022-11-12T07:00:57.871Z,13.00
2022-11-12T07:03:24.697Z,13.00
2022-11-12T07:05:51.485Z,13.10
2022-11-12T07:08:18.204Z,13.10
2022-11-12T07:10:44.966Z,13.10
2022-11-12T07:13:18.428Z,13.10
2022-11-12T07:15:45.156Z,13.10
2022-11-12T07:18:16.098Z,13.20
2022-11-12T07:20:42.941Z,13.20
2022-11-12T07:23:09.713Z,13.20
2022-11-12T07:25:36.470Z,13.30
2022-11-12T07:28:03.216Z,13.30
2022-11-12T07:30:29.999Z,13.30
2022-11-12T07:32:57.910Z,13.30
2022-11-12T07:35:24.863Z,13.30
2022-11-12T07:37:52.856Z,13.30
2022-11-12T07:40:22.007Z,13.30
2022-11-12T07:42:48.746Z,13.30
2022-11-12T07:45:15.571Z,13.30
2022-11-12T07:47:42.391Z,13.40
2022-11-12T07:50:09.554Z,13.40
2022-11-12T07:52:36.304Z,13.40
2022-11-12T07:55:03.034Z,13.50
2022-11-12T07:57:32.118Z,13.50
2022-11-12T07:59:58.875Z,13.50
2022-11-12T08:02:25.680Z,13.50
2022-11-12T08:04:52.700Z,13.50
2022-11-12T08:07:19.673Z,13.50
2022-11-12T08:09:46.444Z,13.50
2022-11-12T08:12:13.219Z,13.50
2022-11-12T08:14:40.002Z,13.50
2022-11-12T08:17:06.756Z,13.50
2022-11-12T08:19:33.456Z,13.60
2022-11-12T08:22:00.152Z,13.60
2022-11-12T08:24:27.131Z,13.60
2022-11-12T08:26:54.003Z,13.70
2022-11-12T08:29:20.802Z,13.70
2022-11-12T08:31:47.550Z,13.70
2022-11-12T08:34:17.425Z,13.70
2022-11-12T08:36:46.762Z,13.70
2022-11-12T08:39:13.502Z,13.70
2022-11-12T08:41:40.326Z,13.70
2022-11-12T08:44:08.670Z,13.70
2022-11-12T08:46:35.891Z,13.70
2022-11-12T08:49:02.712Z,13.70
2022-11-12T08:51:29.572Z,13.80
2022-11-12T08:53:56.393Z,13.80
2022-11-12T08:56:23.312Z,13.80
2022-11-12T08:58:50.029Z,13.80
2022-11-12T09:01:16.926Z,13.80
2022-11-12T09:03:43.717Z,13.90
2022-11-12T09:06:10.463Z,13.90
2022-11-12T09:08:37.999Z,14.00
2022-11-12T09:11:04.881Z,13.90
2022-11-12T09:13:32.173Z,13.90
2022-11-12T09:16:02.633Z,13.90
2022-11-12T09:18:30.051Z,14.00
2022-11-12T09:21:01.003Z,14.00
2022-11-12T09:23:27.751Z,14.00
2022-11-12T09:25:55.070Z,14.00
2022-11-12T09:28:21.896Z,14.00
2022-11-12T09:30:49.834Z,14.10
2022-11-12T09:33:17.476Z,14.10
2022-11-12T09:35:45.691Z,14.10
2022-11-12T09:38:15.000Z,14.20
2022-11-12T09:40:47.787Z,14.20
2022-11-12T09:43:26.974Z,14.20
2022-11-12T09:46:13.610Z,14.30
2022-11-12T09:48:43.035Z,14.30
2022-11-12T09:51:16.079Z,14.50
2022-11-12T09:54:03.068Z,14.40
2022-11-12T09:56:30.289Z,14.40
2022-11-12T09:58:57.070Z,14.50
2022-11-12T10:01:59.512Z,14.50
2022-11-12T10:04:26.315Z,14.60
2022-11-12T10:07:04.461Z,14.60
2022-11-12T10:09:42.981Z,14.70
2022-11-12T10:12:34.066Z,14.80
2022-11-12T10:15:31.772Z,14.80
2022-11-12T10:18:03.505Z,14.80
2022-11-12T10:20:38.463Z,14.90
2022-11-12T10:23:21.035Z,14.90
2022-11-12T10:25:49.027Z,14.90
2022-11-12T10:28:39.324Z,14.90
2022-11-12T10:31:12.076Z,15.00
2022-11-12T10:33:38.988Z,15.00
2022-11-12T10:36:24.142Z,15.00
2022-11-12T10:38:53.147Z,15.00
2022-11-12T10:41:33.078Z,15.00
2022-11-12T10:43:59.854Z,15.00
2022-11-12T10:46:36.741Z,15.00
2022-11-12T10:49:16.030Z,15.00
2022-11-12T10:51:54.304Z,15.10
2022-11-12T10:54:21.345Z,15.10
2022-11-12T10:56:55.057Z,15.20
2022-11-12T10:59:23.176Z,15.10
2022-11-12T11:02:00.232Z,15.00
2022-11-12T11:04:34.775Z,15.00
2022-11-12T11:07:04.688Z,15.00
2022-11-12T11:09:32.057Z,15.00
2022-11-12T11:11:58.940Z,15.00
2022-11-12T11:14:25.710Z,15.00
2022-11-12T11:16:53.794Z,15.00
2022-11-12T11:19:20.782Z,14.90
2022-11-12T11:21:47.524Z,15.00
2022-11-12T11:24:37.124Z,15.00
2022-11-12T11:27:09.856Z,15.00
2022-11-12T11:29:46.014Z,15.10
2022-11-12T11:32:18.820Z,15.00
2022-11-12T11:34:57.823Z,15.10
2022-11-12T11:37:27.211Z,15.10
2022-11-12T11:40:06.766Z,15.10
2022-11-12T11:42:33.501Z,15.20
2022-11-12T11:45:15.420Z,15.20
2022-11-12T11:48:01.683Z,15.30
2022-11-12T11:50:31.843Z,15.30
2022-11-12T11:53:05.393Z,15.30
2022-11-12T11:55:33.497Z,15.30
2022-11-12T11:58:03.009Z,15.30
2022-11-12T12:00:47.085Z,15.30
2022-11-12T12:03:17.754Z,15.20
2022-11-12T12:05:56.587Z,15.20
2022-11-12T12:08:32.780Z,15.20
2022-11-12T12:11:15.263Z,15.10
2022-11-12T12:13:51.106Z,15.00
2022-11-12T12:16:37.978Z,15.00
2022-11-12T12:19:22.369Z,15.00
2022-11-12T12:21:50.557Z,14.90
2022-11-12T12:24:23.444Z,14.90
2022-11-12T12:27:08.307Z,14.90
2022-11-12T12:29:43.140Z,14.90
2022-11-12T12:32:10.141Z,15.00
2022-11-12T12:34:39.146Z,15.10
2022-11-12T12:37:10.620Z,15.20
2022-11-12T12:39:37.493Z,15.20
2022-11-12T12:42:22.694Z,15.20
2022-11-12T12:45:07.992Z,15.20
2022-11-12T12:47:40.277Z,15.30
2022-11-12T12:50:11.991Z,15.20
2022-11-12T12:52:57.337Z,15.20
2022-11-12T12:55:50.242Z,15.10
2022-11-12T12:58:28.496Z,15.10
2022-11-12T13:00:58.727Z,15.00
2022-11-12T13:03:44.179Z,15.10
2022-11-12T13:06:23.119Z,15.00
2022-11-12T13:08:51.814Z,15.00
2022-11-12T13:11:57.008Z,15.00
2022-11-12T13:14:36.077Z,15.00
2022-11-12T13:17:08.568Z,15.00
2022-11-12T13:19:46.345Z,15.00
2022-11-12T13:22:19.120Z,15.00
2022-11-12T13:25:01.178Z,15.00
2022-11-12T13:27:49.038Z,14.90
2022-11-12T13:30:35.982Z,14.90
2022-11-12T13:33:07.619Z,14.90
2022-11-12T13:35:40.968Z,14.80
2022-11-12T13:38:07.626Z,14.80
2022-11-12T13:40:43.565Z,14.80
2022-11-12T13:43:17.732Z,14.80
2022-11-12T13:45:53.283Z,14.70
2022-11-12T13:48:26.164Z,14.60
2022-11-12T13:50:57.846Z,14.50
2022-11-12T13:53:26.392Z,14.50
2022-11-12T13:55:54.895Z,14.40
2022-11-12T13:58:48.049Z,14.30
2022-11-12T14:01:19.713Z,14.20
2022-11-12T14:03:50.607Z,14.00
2022-11-12T14:06:17.358Z,14.00
2022-11-12T14:08:44.130Z,13.90
2022-11-12T14:11:21.192Z,13.80
2022-11-12T14:14:00.049Z,13.70
2022-11-12T14:16:26.805Z,13.60
2022-11-12T14:18:56.707Z,13.50
2022-11-12T14:21:23.500Z,13.50
2022-11-12T14:23:50.599Z,13.40
2022-11-12T14:26:36.084Z,13.30
2022-11-12T14:29:02.930Z,13.20
2022-11-12T14:31:29.695Z,13.10
2022-11-12T14:33:56.453Z,13.10
2022-11-12T14:36:24.189Z,13.00
2022-11-12T14:38:53.266Z,12.90
2022-11-12T14:41:22.867Z,12.80
2022-11-12T14:44:07.440Z,12.70
2022-11-12T14:46:53.866Z,12.60
2022-11-12T14:49:39.389Z,12.50
2022-11-12T14:52:20.902Z,12.60
2022-11-12T14:54:54.899Z,12.50
2022-11-12T14:57:25.872Z,12.40
2022-11-12T14:59:52.698Z,12.40
2022-11-12T15:02:32.520Z,12.40
2022-11-12T15:05:02.435Z,12.30
2022-11-12T15:07:33.636Z,12.20
2022-11-12T15:10:00.575Z,12.20
2022-11-12T15:12:30.104Z,12.10
2022-11-12T15:15:10.443Z,12.10
2022-11-12T15:17:37.709Z,12.00
2022-11-12T15:20:06.011Z,12.00
2022-11-12T15:22:33.049Z,11.90
2022-11-12T15:25:22.089Z,11.80
2022-11-12T15:27:49.163Z,11.70
2022-11-12T15:30:18.886Z,11.70
2022-11-12T15:32:46.229Z,11.70
2022-11-12T15:35:25.070Z,11.60
2022-11-12T15:37:51.931Z,11.60
2022-11-12T15:40:19.910Z,11.50
2022-11-12T15:42:47.158Z,11.40
2022-11-12T15:45:20.959Z,11.40
2022-11-12T15:47:48.139Z,11.50
2022-11-12T15:50:17.871Z,11.40
2022-11-12T15:52:45.218Z,11.40
2022-11-12T15:55:12.863Z,11.40
2022-11-12T15:57:44.264Z,11.40
2022-11-12T16:00:18.885Z,11.30
2022-11-12T16:02:47.122Z,11.30
2022-11-12T16:05:14.932Z,11.20
2022-11-12T16:07:41.787Z,11.10
2022-11-12T16:10:13.025Z,11.10
2022-11-12T16:12:39.888Z,11.00
2022-11-12T16:15:17.090Z,11.00
2022-11-12T16:17:44.530Z,10.90
2022-11-12T16:20:37.597Z,11.00
2022-11-12T16:23:04.960Z,11.00
2022-11-12T16:25:32.717Z,10.90
2022-11-12T16:28:00.997Z,10.90
2022-11-12T16:30:28.857Z,11.00
2022-11-12T16:32:56.896Z,10.80
2022-11-12T16:35:23.796Z,10.80
2022-11-12T16:37:52.842Z,10.90
2022-11-12T16:40:21.366Z,10.80
2022-11-12T16:42:48.107Z,10.90
2022-11-12T16:45:15.964Z,10.90
2022-11-12T16:47:44.166Z,10.90
2022-11-12T16:50:11.598Z,10.90
2022-11-12T16:52:38.396Z,10.90
2022-11-12T16:55:05.516Z,10.90
2022-11-12T16:57:32.322Z,10.90
2022-11-12T16:59:59.459Z,11.00
2022-11-12T17:02:26.353Z,11.00
2022-11-12T17:04:53.124Z,11.00
2022-11-12T17:07:19.847Z,11.00
2022-11-12T17:09:46.693Z,11.00
2022-11-12T17:12:13.446Z,11.00
2022-11-12T17:14:40.130Z,10.90
2022-11-12T17:17:06.861Z,10.90
2022-11-12T17:19:33.619Z,10.90
2022-11-12T17:22:00.422Z,10.90
2022-11-12T17:24:27.289Z,10.90
2022-11-12T17:26:54.053Z,10.90
2022-11-12T17:29:20.791Z,11.00
2022-11-12T17:31:49.391Z,10.90
2022-11-12T17:34:16.258Z,10.80
2022-11-12T17:36:43.945Z,10.80
2022-11-12T17:39:11.899Z,10.80
2022-11-12T17:41:38.998Z,10.80
2022-11-12T17:44:06.158Z,10.80
2022-11-12T17:46:33.613Z,10.80
2022-11-12T17:49:00.418Z,10.80
2022-11-12T17:51:27.994Z,10.80
2022-11-12T17:53:54.723Z,10.80
2022-11-12T17:56:22.999Z,10.80
2022-11-12T17:58:50.325Z,10.80
2022-11-12T18:01:21.867Z,10.80
2022-11-12T18:03:50.415Z,10.70
2022-11-12T18:06:18.414Z,10.70
2022-11-12T18:08:45.531Z,10.70
2022-11-12T18:11:12.926Z,10.70
2022-11-12T18:13:39.634Z,10.70
2022-11-12T18:16:15.500Z,10.60
2022-11-12T18:18:42.388Z,10.60
2022-11-12T18:21:09.317Z,10.60
2022-11-12T18:23:37.122Z,10.50
2022-11-12T18:26:04.023Z,10.50
2022-11-12T18:28:30.841Z,10.60
2022-11-12T18:31:01.524Z,10.60
2022-11-12T18:33:28.972Z,10.50
2022-11-12T18:36:03.187Z,10.50
2022-11-12T18:38:32.394Z,10.50
2022-11-12T18:41:09.645Z,10.50
2022-11-12T18:43:36.845Z,10.50
2022-11-12T18:46:03.827Z,10.40
2022-11-12T18:48:31.519Z,10.40
2022-11-12T18:51:02.227Z,10.40
2022-11-12T18:53:30.043Z,10.30
2022-11-12T18:55:59.049Z,10.30
2022-11-12T18:58:29.414Z,10.30
2022-11-12T19:01:08.771Z,10.30
2022-11-12T19:03:36.106Z,10.30
2022-11-12T19:06:03.644Z,10.20
2022-11-12T19:08:30.379Z,10.20
2022-11-12T19:11:00.570Z,10.20
2022-11-12T19:13:27.861Z,10.10
2022-11-12T19:15:54.877Z,10.10
2022-11-12T19:18:21.709Z,10.10
2022-11-12T19:20:48.890Z,10.10
2022-11-12T19:23:15.676Z,10.10
2022-11-12T19:25:42.523Z,10.10
2022-11-12T19:28:09.299Z,10.10
2022-11-12T19:30:36.019Z,10.10
2022-11-12T19:33:02.835Z,10.00
2022-11-12T19:35:29.643Z,10.00
2022-11-12T19:37:56.378Z,9.90
2022-11-12T19:40:23.191Z,9.90
2022-11-12T19:42:49.940Z,9.80
2022-11-12T19:45:16.673Z,9.80
2022-11-12T19:47:43.455Z,9.80
2022-11-12T19:50:10.534Z,9.70
2022-11-12T19:52:37.282Z,9.60
2022-11-12T19:55:04.255Z,9.60
2022-11-12T19:57:31.012Z,9.60
2022-11-12T19:59:57.761Z,9.60
2022-11-12T20:02:24.515Z,9.60
2022-11-12T20:04:51.510Z,9.60
2022-11-12T20:07:18.391Z,9.60
2022-11-12T20:09:45.192Z,9.50
2022-11-12T20:12:11.987Z,9.60
2022-11-12T20:14:38.801Z,9.60
2022-11-12T20:17:05.725Z,9.50
2022-11-12T20:19:32.502Z,9.50
2022-11-12T20:21:59.300Z,9.50
2022-11-12T20:24:26.097Z,9.50
2022-11-12T20:26:52.827Z,9.40
2022-11-12T20:29:19.541Z,9.40
2022-11-12T20:31:46.309Z,9.30
2022-11-12T20:34:13.781Z,9.30
2022-11-12T20:36:40.591Z,9.30
2022-11-12T20:39:07.851Z,9.30
2022-11-12T20:41:37.908Z,9.40
2022-11-12T20:44:04.732Z,9.40
2022-11-12T20:46:31.577Z,9.40
2022-11-12T20:48:58.613Z,9.40
2022-11-12T20:51:26.219Z,9.40
2022-11-12T20:53:59.948Z,9.40
2022-11-12T20:56:28.291Z,9.30
2022-11-12T20:58:55.101Z,9.20
2022-11-12T21:01:23.016Z,9.20
2022-11-12T21:03:52.774Z,9.10
2022-11-12T21:06:20.699Z,9.10
2022-11-12T21:08:47.481Z,9.10
2022-11-12T21:11:15.510Z,9.10
2022-11-12T21:13:42.612Z,9.10
2022-11-12T21:16:09.990Z,9.00
2022-11-12T21:18:37.239Z,9.10
2022-11-12T21:21:08.244Z,9.10
2022-11-12T21:23:36.650Z,9.00
2022-11-12T21:26:04.415Z,9.10
2022-11-12T21:28:38.478Z,9.10
2022-11-12T21:31:06.699Z,9.00
2022-11-12T21:33:33.482Z,9.00
2022-11-12T21:36:00.395Z,9.00
2022-11-12T21:38:27.966Z,9.00
2022-11-12T21:41:20.931Z,9.10
2022-11-12T21:43:47.931Z,9.10
2022-11-12T21:46:19.009Z,9.00
2022-11-12T21:48:46.094Z,9.00
2022-11-12T21:51:16.668Z,8.90
2022-11-12T21:53:44.901Z,8.90
2022-11-12T21:56:13.092Z,8.80
2022-11-12T21:58:40.015Z,8.80
2022-11-12T22:01:17.390Z,8.80
2022-11-12T22:03:44.644Z,8.70
2022-11-12T22:06:11.546Z,8.70
2022-11-12T22:08:38.893Z,8.70
2022-11-12T22:11:06.848Z,8.80
2022-11-12T22:13:34.233Z,8.80
2022-11-12T22:16:20.268Z,8.70
2022-11-12T22:18:48.093Z,8.80
2022-11-12T22:21:17.047Z,8.70
2022-11-12T22:23:44.149Z,8.70
2022-11-12T22:26:12.078Z,8.80
2022-11-12T22:28:38.853Z,8.80
2022-11-12T22:31:08.655Z,8.80
2022-11-12T22:33:35.493Z,8.70
2022-11-12T22:36:02.693Z,8.70
2022-11-12T22:38:36.854Z,8.70
2022-11-12T22:41:04.425Z,8.70
2022-11-12T22:43:32.669Z,8.60
2022-11-12T22:46:03.530Z,8.70
2022-11-12T22:48:30.495Z,8.70
2022-11-12T22:51:00.979Z,8.60
2022-11-12T22:53:28.307Z,8.70
2022-11-12T22:55:55.101Z,8.70
2022-11-12T22:58:22.295Z,8.70
2022-11-12T23:00:48.988Z,8.70
2022-11-12T23:03:15.756Z,8.60
2022-11-12T23:05:42.711Z,8.50
2022-11-12T23:08:09.479Z,8.50
2022-11-12T23:10:36.731Z,8.50
2022-11-12T23:13:05.187Z,8.50
2022-11-12T23:15:31.952Z,8.50
2022-11-12T23:17:58.662Z,8.40
2022-11-12T23:20:25.407Z,8.40
2022-11-12T23:22:53.396Z,8.30
2022-11-12T23:25:20.141Z,8.30
2022-11-12T23:27:47.012Z,8.30
2022-11-12T23:30:13.832Z,8.30
2022-11-12T23:32:40.548Z,8.30
2022-11-12T23:35:07.457Z,8.30
2022-11-12T23:37:34.209Z,8.30
2022-11-12T23:40:01.010Z,8.30
2022-11-12T23:42:28.376Z,8.20
2022-11-12T23:44:55.193Z,8.20
2022-11-12T23:47:21.936Z,8.10
2022-11-12T23:49:48.666Z,8.10
2022-11-12T23:52:15.437Z,8.10
2022-11-12T23:54:42.235Z,8.10
2022-11-12T23:57:08.984Z,8.10
2022-11-12T23:59:35.785Z,8.00
